createdAt,value
2024-01-11T00:01:35.291Z,69.23
2024-01-11T00:04:01.746Z,69.39
2024-01-11T00:06:29.527Z,68.81
2024-01-11T00:08:56.268Z,68.56
2024-01-11T00:11:22.688Z,69.07
2024-01-11T00:13:49.205Z,68.87
2024-01-11T00:16:15.627Z,69.12
2024-01-11T00:18:42.162Z,69.03
2024-01-11T00:21:08.991Z,69.12
2024-01-11T00:23:36.253Z,68.99
2024-01-11T00:26:02.832Z,68.89
2024-01-11T00:28:30.195Z,68.82
2024-01-11T00:30:56.945Z,68.99
2024-01-11T00:33:24.223Z,69.27
2024-01-11T00:35:50.823Z,68.85
2024-01-11T00:38:17.381Z,68.70
2024-01-11T00:40:44.552Z,68.90
2024-01-11T00:43:11.217Z,69.45
2024-01-11T00:45:37.754Z,69.38
2024-01-11T00:48:06.417Z,69.00
2024-01-11T00:50:33.099Z,69.26
2024-01-11T00:52:59.626Z,69.23
2024-01-11T00:55:26.453Z,69.17
2024-01-11T00:57:52.941Z,69.27
2024-01-11T01:00:19.666Z,69.67
2024-01-11T01:02:46.664Z,69.91
2024-01-11T01:05:13.236Z,69.89
2024-01-11T01:07:39.723Z,69.72
2024-01-11T01:10:06.768Z,70.28
2024-01-11T01:12:34.910Z,70.44
2024-01-11T01:15:01.425Z,71.12
2024-01-11T01:17:29.989Z,71.40
2024-01-11T01:19:57.596Z,70.90
2024-01-11T01:22:24.135Z,70.91
2024-01-11T01:24:50.642Z,70.39
2024-01-11T01:27:18.753Z,70.11
2024-01-11T01:29:45.198Z,69.90
2024-01-11T01:32:11.785Z,69.82
2024-01-11T01:34:38.682Z,69.85
2024-01-11T01:37:05.167Z,70.03
2024-01-11T01:39:31.612Z,70.83
2024-01-11T01:41:58.041Z,70.72
2024-01-11T01:44:24.802Z,70.81
2024-01-11T01:46:53.148Z,70.90
2024-01-11T01:49:23.734Z,71.03
2024-01-11T01:51:51.398Z,70.69
2024-01-11T01:54:19.796Z,71.03
2024-01-11T01:56:46.791Z,70.98
2024-01-11T01:59:14.384Z,70.67
2024-01-11T02:01:41.473Z,70.83
2024-01-11T02:04:08.407Z,70.73
2024-01-11T02:06:35.884Z,71.06
2024-01-11T02:09:06.208Z,70.74
2024-01-11T02:11:32.759Z,70.66
2024-01-11T02:14:00.014Z,70.39
2024-01-11T02:16:27.264Z,70.65
2024-01-11T02:18:53.865Z,70.86
2024-01-11T02:21:23.891Z,70.66
2024-01-11T02:24:11.022Z,70.87
2024-01-11T02:26:37.665Z,71.07
2024-01-11T02:29:04.525Z,71.25
2024-01-11T02:31:31.721Z,70.96
2024-01-11T02:33:59.228Z,70.63
2024-01-11T02:36:26.755Z,70.45
2024-01-11T02:38:54.567Z,70.30
2024-01-11T02:41:22.370Z,70.48
2024-01-11T02:43:50.154Z,70.49
2024-01-11T02:46:17.864Z,70.59
2024-01-11T02:48:44.574Z,70.89
2024-01-11T02:51:11.983Z,71.45
2024-01-11T02:53:38.583Z,71.29
2024-01-11T02:56:05.380Z,71.47
2024-01-11T02:58:32.201Z,71.75
2024-01-11T03:00:58.996Z,71.52
2024-01-11T03:03:25.610Z,71.48
2024-01-11T03:05:52.448Z,70.89
2024-01-11T03:08:19.186Z,70.65
2024-01-11T03:10:45.663Z,70.17
2024-01-11T03:13:12.229Z,70.35
2024-01-11T03:15:38.750Z,70.19
2024-01-11T03:18:06.175Z,69.90
2024-01-11T03:20:32.866Z,69.80
2024-01-11T03:22:59.447Z,69.58
2024-01-11T03:25:26.535Z,69.87
2024-01-11T03:27:53.037Z,69.47
2024-01-11T03:30:20.118Z,69.94
2024-01-11T03:32:48.173Z,69.49
2024-01-11T03:35:16.103Z,69.69
2024-01-11T03:37:42.957Z,69.40
2024-01-11T03:40:09.716Z,69.60
2024-01-11T03:42:36.199Z,69.67
2024-01-11T03:45:02.807Z,69.43
2024-01-11T03:47:29.648Z,70.08
2024-01-11T03:49:57.473Z,69.84
2024-01-11T03:52:25.233Z,69.62
2024-01-11T03:54:51.816Z,69.94
2024-01-11T03:57:18.564Z,69.93
2024-01-11T03:59:48.126Z,69.89
2024-01-11T04:02:15.641Z,69.71
2024-01-11T04:04:43.801Z,70.15
2024-01-11T04:07:13.880Z,70.31
2024-01-11T04:09:40.584Z,70.24
2024-01-11T04:12:07.639Z,70.37
2024-01-11T04:14:34.513Z,70.31
2024-01-11T04:17:01.041Z,70.70
2024-01-11T04:19:27.581Z,70.92
2024-01-11T04:21:54.150Z,70.87
2024-01-11T04:24:20.808Z,70.96
2024-01-11T04:26:47.268Z,70.90
2024-01-11T04:29:14.103Z,70.54
2024-01-11T04:31:41.066Z,70.64
2024-01-11T04:34:07.675Z,71.39
2024-01-11T04:36:34.169Z,71.70
2024-01-11T04:39:00.659Z,72.02
2024-01-11T04:41:27.427Z,71.72
2024-01-11T04:43:54.198Z,71.95
2024-01-11T04:46:22.536Z,72.32
2024-01-11T04:48:50.388Z,73.52
2024-01-11T04:51:20.121Z,73.64
2024-01-11T04:53:47.568Z,73.24
2024-01-11T04:56:17.857Z,72.77
2024-01-11T04:58:47.091Z,72.88
2024-01-11T05:01:17.895Z,72.83
2024-01-11T05:03:46.178Z,72.67
2024-01-11T05:06:24.069Z,72.45
2024-01-11T05:08:56.318Z,72.07
2024-01-11T05:11:25.736Z,72.17
2024-01-11T05:13:52.979Z,72.54
2024-01-11T05:16:26.564Z,72.86
2024-01-11T05:18:55.349Z,73.29
2024-01-11T05:21:22.603Z,73.51
2024-01-11T05:23:50.673Z,74.49
2024-01-11T05:26:18.143Z,74.97
2024-01-11T05:28:44.914Z,75.74
2024-01-11T05:31:14.816Z,74.64
2024-01-11T05:33:42.466Z,74.57
2024-01-11T05:36:09.432Z,74.08
2024-01-11T05:38:36.423Z,74.21
2024-01-11T05:41:03.458Z,74.93
2024-01-11T05:43:30.067Z,74.69
2024-01-11T05:45:59.043Z,76.03
2024-01-11T05:48:26.629Z,76.25
2024-01-11T05:50:53.201Z,76.04
2024-01-11T05:53:22.144Z,75.38
2024-01-11T05:55:49.773Z,75.02
2024-01-11T05:58:17.614Z,74.09
2024-01-11T06:00:44.425Z,73.64
2024-01-11T06:03:13.259Z,76.55
2024-01-11T06:05:40.670Z,78.36
2024-01-11T06:08:07.313Z,78.22
2024-01-11T06:10:35.081Z,77.09
2024-01-11T06:13:03.906Z,76.90
2024-01-11T06:15:30.431Z,76.17
2024-01-11T06:17:57.125Z,75.67
2024-01-11T06:20:24.792Z,74.86
2024-01-11T06:22:51.467Z,74.17
2024-01-11T06:25:18.361Z,73.81
2024-01-11T06:27:45.239Z,73.42
2024-01-11T06:30:12.203Z,73.28
2024-01-11T06:32:39.252Z,72.97
2024-01-11T06:35:07.036Z,72.85
2024-01-11T06:37:34.016Z,72.94
2024-01-11T06:40:00.500Z,72.44
2024-01-11T06:42:27.304Z,72.55
2024-01-11T06:44:54.040Z,72.35
2024-01-11T06:47:21.151Z,72.86
2024-01-11T06:49:48.223Z,72.78
2024-01-11T06:52:14.687Z,72.67
2024-01-11T06:54:41.263Z,72.58
2024-01-11T06:57:07.727Z,74.72
2024-01-11T06:59:35.113Z,76.63
2024-01-11T07:02:01.677Z,77.23
2024-01-11T07:04:30.751Z,78.79
2024-01-11T07:06:58.881Z,80.00
2024-01-11T07:09:26.778Z,80.09
2024-01-11T07:11:53.423Z,80.52
2024-01-11T07:14:19.959Z,79.82
2024-01-11T07:16:46.484Z,78.58
2024-01-11T07:19:15.690Z,78.18
2024-01-11T07:21:42.230Z,77.53
2024-01-11T07:24:10.731Z,77.49
2024-01-11T07:26:37.239Z,77.72
2024-01-11T07:29:03.801Z,78.05
2024-01-11T07:31:30.624Z,78.49
2024-01-11T07:33:57.296Z,78.75
2024-01-11T07:36:25.217Z,78.38
2024-01-11T07:38:51.890Z,77.97
2024-01-11T07:41:18.699Z,77.10
2024-01-11T07:43:53.144Z,76.07
2024-01-11T07:46:29.334Z,75.50
2024-01-11T07:49:03.013Z,75.43
2024-01-11T07:51:29.770Z,75.61
2024-01-11T07:53:56.206Z,74.95
2024-01-11T07:56:23.416Z,74.62
2024-01-11T07:58:50.428Z,74.43
2024-01-11T08:01:17.412Z,74.02
2024-01-11T08:03:46.502Z,73.55
2024-01-11T08:06:13.811Z,74.03
2024-01-11T08:08:42.302Z,74.32
2024-01-11T08:11:09.208Z,74.19
2024-01-11T08:13:36.319Z,74.10
2024-01-11T08:16:05.682Z,74.06
2024-01-11T08:18:32.257Z,73.82
2024-01-11T08:21:00.529Z,73.68
2024-01-11T08:23:28.034Z,73.88
2024-01-11T08:25:54.604Z,73.99
2024-01-11T08:28:21.898Z,75.69
2024-01-11T08:30:48.592Z,77.16
2024-01-11T08:33:15.408Z,78.11
2024-01-11T08:35:43.257Z,77.86
2024-01-11T08:38:10.127Z,78.27
2024-01-11T08:40:37.084Z,77.60
2024-01-11T08:43:04.434Z,77.71
2024-01-11T08:45:32.535Z,77.74
2024-01-11T08:47:59.212Z,77.07
2024-01-11T08:50:27.672Z,76.47
2024-01-11T08:52:57.022Z,76.08
2024-01-11T08:55:23.913Z,75.82
2024-01-11T08:57:50.470Z,75.50
2024-01-11T09:00:19.714Z,75.15
2024-01-11T09:02:51.189Z,75.39
2024-01-11T09:05:18.139Z,75.86
2024-01-11T09:07:44.781Z,75.54
2024-01-11T09:10:12.759Z,75.35
2024-01-11T09:12:40.009Z,75.65
2024-01-11T09:15:07.156Z,75.77
2024-01-11T09:17:34.214Z,75.30
2024-01-11T09:20:01.316Z,75.10
2024-01-11T09:22:29.424Z,75.04
2024-01-11T09:24:56.264Z,75.16
2024-01-11T09:27:23.417Z,75.01
2024-01-11T09:29:53.165Z,74.89
2024-01-11T09:32:22.425Z,75.29
2024-01-11T09:34:48.974Z,75.37
2024-01-11T09:37:15.889Z,75.03
2024-01-11T09:39:43.728Z,74.92
2024-01-11T09:42:11.335Z,75.03
2024-01-11T09:44:42.463Z,74.95
2024-01-11T09:47:13.888Z,74.60
2024-01-11T09:49:44.316Z,74.68
2024-01-11T09:52:14.647Z,74.35
2024-01-11T09:54:45.625Z,73.53
2024-01-11T09:57:13.021Z,73.71
2024-01-11T09:59:41.965Z,74.14
2024-01-11T10:02:11.424Z,74.25
2024-01-11T10:04:38.552Z,73.76
2024-01-11T10:07:07.316Z,73.62
2024-01-11T10:09:33.826Z,73.34
2024-01-11T10:12:00.557Z,73.20
2024-01-11T10:14:27.645Z,73.07
2024-01-11T10:16:55.658Z,73.12
2024-01-11T10:19:22.798Z,73.18
2024-01-11T10:21:49.474Z,73.21
2024-01-11T10:24:21.504Z,73.16
2024-01-11T10:26:48.099Z,73.27
2024-01-11T10:29:14.773Z,73.42
2024-01-11T10:31:41.524Z,73.31
2024-01-11T10:34:08.352Z,73.27
2024-01-11T10:36:35.007Z,73.57
2024-01-11T10:39:06.576Z,73.48
2024-01-11T10:41:41.965Z,73.27
2024-01-11T10:44:21.170Z,73.13
2024-01-11T10:46:50.558Z,73.14
2024-01-11T10:49:19.853Z,72.76
2024-01-11T10:51:59.227Z,73.46
2024-01-11T10:54:27.305Z,73.36
2024-01-11T10:56:55.623Z,73.48
2024-01-11T10:59:26.617Z,73.00
2024-01-11T11:01:55.744Z,72.74
2024-01-11T11:04:24.215Z,72.83
2024-01-11T11:06:56.066Z,72.44
2024-01-11T11:09:24.011Z,72.56
2024-01-11T11:11:50.803Z,72.41
2024-01-11T11:14:19.353Z,72.37
2024-01-11T11:16:46.580Z,72.65
2024-01-11T11:19:18.403Z,72.59
2024-01-11T11:21:46.275Z,72.22
2024-01-11T11:24:13.950Z,72.52
2024-01-11T11:26:40.473Z,71.88
2024-01-11T11:29:07.279Z,71.86
2024-01-11T11:31:47.085Z,71.81
2024-01-11T11:34:14.673Z,71.65
2024-01-11T11:36:44.709Z,71.51
2024-01-11T11:39:14.980Z,71.33
2024-01-11T11:41:43.934Z,71.33
2024-01-11T11:44:13.692Z,71.36
2024-01-11T11:46:40.498Z,71.06
2024-01-11T11:49:07.559Z,71.21
2024-01-11T11:51:34.405Z,70.68
2024-01-11T11:54:01.093Z,70.94
2024-01-11T11:56:28.037Z,70.83
2024-01-11T11:58:56.354Z,70.79
2024-01-11T12:01:23.437Z,70.71
2024-01-11T12:03:50.730Z,70.46
2024-01-11T12:06:20.078Z,70.03
2024-01-11T12:08:49.117Z,69.90
2024-01-11T12:11:19.133Z,69.93
2024-01-11T12:13:46.478Z,69.81
2024-01-11T12:16:14.268Z,69.99
2024-01-11T12:18:42.571Z,70.23
2024-01-11T12:21:09.674Z,69.68
2024-01-11T12:23:37.928Z,69.82
2024-01-11T12:26:09.045Z,69.54
2024-01-11T12:28:35.952Z,69.69
2024-01-11T12:31:02.486Z,69.97
2024-01-11T12:33:30.128Z,69.73
2024-01-11T12:35:56.979Z,69.93
2024-01-11T12:38:23.978Z,69.76
2024-01-11T12:40:51.987Z,69.37
2024-01-11T12:43:18.969Z,69.03
2024-01-11T12:45:45.544Z,69.53
2024-01-11T12:48:15.507Z,69.56
2024-01-11T12:50:42.530Z,69.43
2024-01-11T12:53:19.655Z,69.75
2024-01-11T12:55:54.625Z,69.80
2024-01-11T12:58:27.278Z,69.29
2024-01-11T13:00:54.506Z,69.67
2024-01-11T13:03:22.108Z,69.47
2024-01-11T13:05:50.176Z,69.98
2024-01-11T13:08:19.486Z,69.89
2024-01-11T13:10:49.425Z,69.73
2024-01-11T13:13:16.636Z,69.16
2024-01-11T13:15:43.348Z,68.95
2024-01-11T13:18:10.750Z,69.03
2024-01-11T13:20:37.431Z,68.73
2024-01-11T13:23:22.183Z,68.54
2024-01-11T13:25:53.510Z,68.85
2024-01-11T13:28:20.652Z,68.64
2024-01-11T13:30:48.106Z,68.88
2024-01-11T13:33:16.868Z,68.88
2024-01-11T13:35:46.888Z,69.13
2024-01-11T13:38:13.831Z,68.72
2024-01-11T13:40:41.422Z,68.44
2024-01-11T13:43:08.174Z,68.51
2024-01-11T13:45:37.197Z,68.54
2024-01-11T13:48:05.477Z,67.89
2024-01-11T13:50:33.547Z,67.93
2024-01-11T13:53:01.457Z,68.53
2024-01-11T13:55:28.060Z,68.32
2024-01-11T13:57:54.700Z,68.08
2024-01-11T14:00:21.570Z,67.72
2024-01-11T14:02:49.230Z,68.10
2024-01-11T14:05:19.656Z,67.59
2024-01-11T14:07:46.840Z,68.18
2024-01-11T14:10:14.965Z,67.73
2024-01-11T14:12:41.799Z,67.44
2024-01-11T14:15:14.915Z,67.39
2024-01-11T14:17:44.268Z,67.75
2024-01-11T14:20:15.904Z,67.53
2024-01-11T14:22:48.470Z,67.05
2024-01-11T14:25:15.653Z,67.51
2024-01-11T14:27:42.514Z,67.35
2024-01-11T14:30:11.059Z,67.36
2024-01-11T14:32:38.702Z,67.25
2024-01-11T14:35:08.659Z,67.12
2024-01-11T14:37:37.144Z,67.54
2024-01-11T14:40:03.928Z,67.18
2024-01-11T14:42:30.501Z,67.36
2024-01-11T14:44:58.313Z,67.58
2024-01-11T14:47:24.986Z,67.44
2024-01-11T14:49:51.815Z,67.48
2024-01-11T14:52:23.667Z,67.42
2024-01-11T14:54:50.142Z,67.50
2024-01-11T14:57:17.133Z,67.79
2024-01-11T14:59:44.904Z,67.81
2024-01-11T15:02:12.467Z,67.97
2024-01-11T15:04:40.151Z,67.67
2024-01-11T15:07:06.979Z,68.08
2024-01-11T15:09:36.378Z,67.44
2024-01-11T15:12:04.092Z,67.68
2024-01-11T15:14:30.765Z,67.80
2024-01-11T15:16:58.575Z,67.53
2024-01-11T15:19:25.639Z,68.04
2024-01-11T15:21:53.634Z,68.15
2024-01-11T15:24:21.046Z,68.26
2024-01-11T15:26:49.848Z,68.04
2024-01-11T15:29:17.525Z,68.39
2024-01-11T15:31:46.534Z,68.17
2024-01-11T15:34:14.470Z,68.13
2024-01-11T15:36:44.043Z,68.01
2024-01-11T15:39:21.715Z,68.59
2024-01-11T15:41:58.569Z,68.23
2024-01-11T15:44:30.007Z,68.31
2024-01-11T15:46:57.526Z,68.65
2024-01-11T15:49:24.427Z,68.57
2024-01-11T15:51:51.491Z,68.21
2024-01-11T15:54:18.324Z,68.53
2024-01-11T15:56:44.831Z,68.94
2024-01-11T15:59:11.392Z,68.79
2024-01-11T16:01:50.681Z,68.72
2024-01-11T16:04:24.285Z,68.82
2024-01-11T16:06:51.200Z,69.31
2024-01-11T16:09:17.936Z,69.17
2024-01-11T16:11:45.175Z,68.90
2024-01-11T16:14:11.726Z,69.18
2024-01-11T16:16:38.331Z,68.70
2024-01-11T16:19:05.132Z,68.78
2024-01-11T16:21:32.713Z,69.01
2024-01-11T16:24:02.827Z,68.78
2024-01-11T16:26:30.275Z,68.96
2024-01-11T16:28:56.956Z,68.89
2024-01-11T16:31:26.503Z,69.23
2024-01-11T16:33:53.916Z,69.41
2024-01-11T16:36:22.511Z,69.49
2024-01-11T16:38:49.207Z,69.25
2024-01-11T16:41:16.188Z,69.18
2024-01-11T16:43:44.826Z,69.16
2024-01-11T16:46:21.876Z,69.69
2024-01-11T16:48:49.432Z,69.29
2024-01-11T16:51:16.864Z,69.18
2024-01-11T16:53:44.395Z,69.82
2024-01-11T16:56:13.502Z,69.42
2024-01-11T16:58:40.063Z,69.86
2024-01-11T17:01:06.627Z,69.95
2024-01-11T17:03:33.450Z,70.15
2024-01-11T17:05:59.968Z,70.17
2024-01-11T17:08:29.168Z,69.87
2024-01-11T17:10:55.729Z,70.08
2024-01-11T17:13:23.639Z,70.12
2024-01-11T17:15:52.131Z,70.28
2024-01-11T17:18:19.391Z,70.30
2024-01-11T17:20:46.476Z,69.95
2024-01-11T17:23:15.740Z,70.39
2024-01-11T17:25:42.249Z,70.17
2024-01-11T17:28:08.676Z,70.11
2024-01-11T17:30:35.291Z,70.19
2024-01-11T17:33:01.930Z,70.66
2024-01-11T17:35:28.536Z,70.86
2024-01-11T17:37:56.301Z,70.57
2024-01-11T17:40:23.022Z,70.76
2024-01-11T17:42:49.569Z,71.28
2024-01-11T17:45:18.469Z,71.38
2024-01-11T17:47:45.572Z,71.17
2024-01-11T17:50:13.543Z,71.60
2024-01-11T17:52:44.487Z,71.60
2024-01-11T17:55:12.675Z,71.49
2024-01-11T17:57:40.074Z,71.89
2024-01-11T18:00:07.893Z,71.36
2024-01-11T18:02:34.467Z,71.81
2024-01-11T18:05:01.174Z,72.04
2024-01-11T18:07:27.727Z,71.82
2024-01-11T18:09:54.954Z,72.17
2024-01-11T18:12:21.538Z,71.82
2024-01-11T18:14:48.597Z,72.16
2024-01-11T18:17:15.173Z,71.74
2024-01-11T18:19:43.596Z,72.09
2024-01-11T18:22:10.343Z,71.37
2024-01-11T18:24:37.084Z,71.69
2024-01-11T18:27:09.233Z,71.93
2024-01-11T18:29:36.154Z,72.18
2024-01-11T18:32:05.312Z,71.82
2024-01-11T18:34:35.166Z,72.45
2024-01-11T18:37:01.688Z,72.30
2024-01-11T18:39:28.740Z,72.44
2024-01-11T18:42:01.214Z,72.67
2024-01-11T18:44:27.778Z,72.83
2024-01-11T18:46:54.811Z,72.54
2024-01-11T18:49:21.625Z,73.12
2024-01-11T18:51:48.156Z,73.38
2024-01-11T18:54:15.192Z,73.07
2024-01-11T18:56:41.617Z,73.49
2024-01-11T18:59:08.536Z,73.54
2024-01-11T19:01:35.202Z,73.59
2024-01-11T19:04:02.352Z,73.63
2024-01-11T19:06:31.025Z,73.73
2024-01-11T19:08:58.829Z,73.82
2024-01-11T19:11:28.073Z,74.38
2024-01-11T19:13:54.610Z,74.19
2024-01-11T19:16:23.305Z,73.88
2024-01-11T19:18:52.602Z,73.71
2024-01-11T19:21:19.556Z,73.53
2024-01-11T19:23:46.409Z,73.94
2024-01-11T19:26:13.366Z,74.27
2024-01-11T19:28:39.860Z,74.48
2024-01-11T19:31:07.044Z,74.23
2024-01-11T19:33:35.669Z,74.36
2024-01-11T19:36:02.857Z,74.23
2024-01-11T19:38:29.478Z,74.08
2024-01-11T19:40:56.018Z,74.42
2024-01-11T19:43:22.565Z,74.27
2024-01-11T19:45:49.299Z,74.27
2024-01-11T19:48:18.617Z,74.82
2024-01-11T19:50:49.291Z,74.87
2024-01-11T19:53:17.111Z,75.50
2024-01-11T19:55:43.968Z,75.46
2024-01-11T19:58:10.765Z,75.24
2024-01-11T20:00:41.667Z,74.82
2024-01-11T20:03:09.143Z,74.75
2024-01-11T20:05:35.750Z,74.87
2024-01-11T20:08:04.076Z,73.79
2024-01-11T20:10:31.075Z,74.36
2024-01-11T20:12:57.551Z,74.14
2024-01-11T20:15:24.693Z,74.03
2024-01-11T20:17:51.386Z,73.51
2024-01-11T20:20:18.720Z,73.44
2024-01-11T20:22:45.496Z,73.13
2024-01-11T20:25:14.473Z,72.96
2024-01-11T20:27:42.114Z,73.41
2024-01-11T20:30:12.147Z,73.73
2024-01-11T20:32:39.522Z,73.86
2024-01-11T20:35:08.425Z,73.16
2024-01-11T20:37:35.766Z,73.17
2024-01-11T20:40:02.254Z,73.42
2024-01-11T20:42:29.510Z,73.03
2024-01-11T20:44:56.022Z,73.13
2024-01-11T20:47:24.234Z,73.31
2024-01-11T20:49:51.832Z,73.26
2024-01-11T20:52:21.929Z,73.51
2024-01-11T20:54:50.700Z,73.20
2024-01-11T20:57:18.600Z,73.03
2024-01-11T20:59:45.101Z,73.37
2024-01-11T21:02:11.701Z,73.41
2024-01-11T21:04:38.260Z,73.35
2024-01-11T21:07:05.176Z,73.51
2024-01-11T21:09:32.593Z,73.49
2024-01-11T21:12:01.942Z,73.41
2024-01-11T21:14:28.588Z,73.47
2024-01-11T21:16:57.529Z,73.00
2024-01-11T21:19:24.121Z,73.18
2024-01-11T21:21:51.784Z,73.07
2024-01-11T21:24:20.164Z,73.00
2024-01-11T21:26:46.999Z,73.15
2024-01-11T21:29:13.540Z,73.15
2024-01-11T21:31:40.061Z,73.32
2024-01-11T21:34:06.867Z,73.67
2024-01-11T21:36:34.249Z,73.73
2024-01-11T21:39:01.040Z,73.34
2024-01-11T21:41:28.417Z,73.24
2024-01-11T21:43:58.424Z,73.42
2024-01-11T21:46:28.983Z,73.49
2024-01-11T21:48:55.941Z,73.83
2024-01-11T21:51:22.811Z,73.51
2024-01-11T21:53:49.412Z,73.96
2024-01-11T21:56:17.072Z,73.98
2024-01-11T21:58:43.595Z,73.86
2024-01-11T22:01:10.136Z,73.58
2024-01-11T22:03:36.973Z,74.01
2024-01-11T22:06:04.749Z,73.92
2024-01-11T22:08:31.673Z,73.75
2024-01-11T22:10:58.583Z,73.74
2024-01-11T22:13:25.299Z,73.58
2024-01-11T22:15:51.725Z,73.57
2024-01-11T22:18:18.498Z,74.07
2024-01-11T22:20:45.254Z,73.54
2024-01-11T22:23:12.600Z,74.03
2024-01-11T22:25:39.514Z,73.90
2024-01-11T22:28:06.434Z,73.65
2024-01-11T22:30:33.130Z,73.69
2024-01-11T22:32:59.928Z,73.95
2024-01-11T22:35:26.776Z,73.71
2024-01-11T22:37:53.398Z,73.15
2024-01-11T22:40:19.934Z,73.80
2024-01-11T22:42:48.509Z,73.44
2024-01-11T22:45:15.004Z,73.25
2024-01-11T22:47:42.437Z,73.09
2024-01-11T22:50:09.668Z,73.31
2024-01-11T22:52:36.189Z,73.33
2024-01-11T22:55:02.671Z,73.68
2024-01-11T22:57:29.279Z,73.18
2024-01-11T22:59:55.759Z,72.93
2024-01-11T23:02:22.697Z,73.05
2024-01-11T23:04:49.242Z,72.78
2024-01-11T23:07:15.942Z,73.03
2024-01-11T23:09:42.765Z,73.33
2024-01-11T23:12:10.719Z,73.52
2024-01-11T23:14:38.402Z,73.14
2024-01-11T23:17:07.298Z,73.25
2024-01-11T23:19:34.205Z,72.93
2024-01-11T23:22:00.806Z,72.82
2024-01-11T23:24:27.310Z,73.16
2024-01-11T23:26:54.814Z,72.84
2024-01-11T23:29:21.485Z,72.59
2024-01-11T23:31:49.219Z,73.20
2024-01-11T23:34:16.474Z,73.17
2024-01-11T23:36:43.347Z,73.04
2024-01-11T23:39:10.047Z,72.88
2024-01-11T23:41:36.611Z,73.29
2024-01-11T23:44:03.166Z,73.47
2024-01-11T23:46:29.988Z,73.51
2024-01-11T23:48:59.160Z,73.46
2024-01-11T23:51:26.433Z,73.18
2024-01-11T23:53:53.702Z,72.83
2024-01-11T23:56:20.551Z,73.38
2024-01-11T23:58:47.541Z,73.05
